createdAt,value
2022-09-07T00:00:51.196Z,80.01
2022-09-07T00:03:55.867Z,79.79
2022-09-07T00:06:58.895Z,79.65
2022-09-07T00:10:01.956Z,79.94
2022-09-07T00:13:04.964Z,79.91
2022-09-07T00:16:10.234Z,79.71
2022-09-07T00:19:13.774Z,80.42
2022-09-07T00:22:16.627Z,80.46
2022-09-07T00:25:19.394Z,80.96
2022-09-07T00:28:22.203Z,80.98
2022-09-07T00:31:26.401Z,81.05
2022-09-07T00:34:29.117Z,81.27
2022-09-07T00:37:31.912Z,81.48
2022-09-07T00:40:34.667Z,81.49
2022-09-07T00:43:38.676Z,81.08
2022-09-07T00:46:43.473Z,80.90
2022-09-07T00:49:46.431Z,81.28
2022-09-07T00:52:50.233Z,80.83
2022-09-07T00:55:53.598Z,80.75
2022-09-07T00:58:56.321Z,80.64
2022-09-07T01:02:00.515Z,80.50
2022-09-07T01:05:09.397Z,81.24
2022-09-07T01:08:12.844Z,81.09
2022-09-07T01:11:15.534Z,81.03
2022-09-07T01:14:18.673Z,80.57
2022-09-07T01:17:27.138Z,81.15
2022-09-07T01:20:37.914Z,81.44
2022-09-07T01:24:03.204Z,81.54
2022-09-07T01:27:53.986Z,81.06
2022-09-07T01:30:59.415Z,81.10
2022-09-07T01:34:04.207Z,81.17
2022-09-07T01:37:09.491Z,81.00
2022-09-07T01:40:14.545Z,81.32
2022-09-07T01:43:20.440Z,82.58
2022-09-07T01:46:27.673Z,82.89
2022-09-07T01:49:33.481Z,82.58
2022-09-07T01:52:39.332Z,82.15
2022-09-07T01:55:44.088Z,82.57
2022-09-07T01:58:47.349Z,82.22
2022-09-07T02:01:53.345Z,82.08
2022-09-07T02:04:57.622Z,81.81
2022-09-07T02:08:01.571Z,82.08
2022-09-07T02:11:05.654Z,81.98
2022-09-07T02:14:09.833Z,81.84
2022-09-07T02:17:17.106Z,81.39
2022-09-07T02:20:21.010Z,81.58
2022-09-07T02:23:25.192Z,81.58
2022-09-07T02:26:27.905Z,81.55
2022-09-07T02:29:31.158Z,81.63
2022-09-07T02:32:35.487Z,82.45
2022-09-07T02:35:38.259Z,82.92
2022-09-07T02:38:41.087Z,83.02
2022-09-07T02:41:44.713Z,83.54
2022-09-07T02:44:48.177Z,84.19
2022-09-07T02:48:00.452Z,83.94
2022-09-07T02:51:07.784Z,83.25
2022-09-07T02:54:18.384Z,83.44
2022-09-07T02:57:24.889Z,84.61
2022-09-07T03:00:27.562Z,86.66
2022-09-07T03:03:34.961Z,87.22
2022-09-07T03:06:39.589Z,87.95
2022-09-07T03:09:43.874Z,88.22
2022-09-07T03:12:47.527Z,87.77
2022-09-07T03:15:54.986Z,88.19
2022-09-07T03:18:59.743Z,88.61
2022-09-07T03:22:02.459Z,88.46
2022-09-07T03:25:06.278Z,88.92
2022-09-07T03:28:09.002Z,88.59
2022-09-07T03:31:11.902Z,88.88
2022-09-07T03:34:16.122Z,88.93
2022-09-07T03:37:18.857Z,88.33
2022-09-07T03:40:21.594Z,88.50
2022-09-07T03:43:25.398Z,88.80
2022-09-07T03:46:28.314Z,89.16
2022-09-07T03:49:32.497Z,89.34
2022-09-07T03:52:35.329Z,89.32
2022-09-07T03:55:38.075Z,89.45
2022-09-07T03:58:40.824Z,89.18
2022-09-07T04:01:43.599Z,88.61
2022-09-07T04:04:48.174Z,88.76
2022-09-07T04:07:52.483Z,88.93
2022-09-07T04:10:58.753Z,89.27
2022-09-07T04:14:01.630Z,89.26
2022-09-07T04:17:04.370Z,89.62
2022-09-07T04:20:09.891Z,90.22
2022-09-07T04:23:12.599Z,89.92
2022-09-07T04:26:16.651Z,90.53
2022-09-07T04:29:19.394Z,90.19
2022-09-07T04:32:22.135Z,90.15
2022-09-07T04:35:26.323Z,90.53
2022-09-07T04:38:29.321Z,90.93
2022-09-07T04:41:32.630Z,90.88
2022-09-07T04:44:35.534Z,90.88
2022-09-07T04:47:38.208Z,90.87
2022-09-07T04:50:42.221Z,90.99
2022-09-07T04:53:44.899Z,91.04
2022-09-07T04:56:47.573Z,90.89
2022-09-07T04:59:50.310Z,91.43
2022-09-07T05:02:52.976Z,91.35
2022-09-07T05:05:57.143Z,91.98
2022-09-07T05:08:59.964Z,91.90
2022-09-07T05:12:03.047Z,91.50
2022-09-07T05:15:06.745Z,91.79
2022-09-07T05:18:09.545Z,91.63
2022-09-07T05:21:14.628Z,91.61
2022-09-07T05:24:17.340Z,91.59
2022-09-07T05:27:20.092Z,91.47
2022-09-07T05:37:10.835Z,90.67
2022-09-07T05:40:15.317Z,90.62
2022-09-07T05:43:17.972Z,90.33
2022-09-07T05:46:20.746Z,90.44
2022-09-07T05:49:23.467Z,90.26
2022-09-07T05:52:27.503Z,90.25
2022-09-07T05:55:32.023Z,87.63
2022-09-07T05:58:34.953Z,84.68
2022-09-07T06:01:37.745Z,82.72
2022-09-07T06:04:40.577Z,81.70
2022-09-07T06:07:47.911Z,82.22
2022-09-07T06:10:50.617Z,83.89
2022-09-07T06:13:53.367Z,85.18
2022-09-07T06:16:56.153Z,86.74
2022-09-07T06:19:58.869Z,88.09
2022-09-07T06:23:02.986Z,88.86
2022-09-07T06:26:05.823Z,88.62
2022-09-07T06:29:10.061Z,88.68
2022-09-07T06:35:35.626Z,89.62
2022-09-07T06:38:39.878Z,90.12
2022-09-07T06:42:00.051Z,90.48
2022-09-07T06:45:02.851Z,91.12
2022-09-07T06:48:05.647Z,91.04
2022-09-07T06:51:10.336Z,91.89
2022-09-07T06:57:37.072Z,92.38
2022-09-07T07:00:39.838Z,93.26
2022-09-07T07:03:42.718Z,92.23
2022-09-07T07:06:45.394Z,91.82
2022-09-07T07:09:50.972Z,91.94
2022-09-07T07:12:57.385Z,91.42
2022-09-07T07:16:05.146Z,89.72
2022-09-07T07:19:07.852Z,88.50
2022-09-07T07:25:35.972Z,86.53
2022-09-07T07:32:01.838Z,87.57
2022-09-07T07:35:19.806Z,87.41
2022-09-07T07:41:55.444Z,85.98
2022-09-07T07:51:25.462Z,85.22
2022-09-07T07:54:28.090Z,85.63
2022-09-07T07:57:33.254Z,85.48
2022-09-07T08:00:52.965Z,84.45
2022-09-07T08:03:56.658Z,84.28
2022-09-07T08:06:59.236Z,84.64
2022-09-07T08:10:01.971Z,82.94
2022-09-07T08:13:07.101Z,81.41
2022-09-07T08:16:09.833Z,79.84
2022-09-07T08:19:12.487Z,79.98
2022-09-07T08:22:15.293Z,80.16
2022-09-07T08:25:18.935Z,79.73
2022-09-07T08:28:23.412Z,79.39
2022-09-07T08:31:26.081Z,78.74
2022-09-07T08:34:28.762Z,77.45
2022-09-07T08:37:31.404Z,76.19
2022-09-07T08:40:36.338Z,74.38
2022-09-07T08:43:48.973Z,74.21
2022-09-07T08:46:54.164Z,75.42
2022-09-07T08:50:01.180Z,73.71
2022-09-07T08:53:03.911Z,70.83
2022-09-07T08:56:09.525Z,71.89
2022-09-07T08:59:16.353Z,71.64
2022-09-07T09:02:40.303Z,70.69
2022-09-07T09:05:44.747Z,70.71
2022-09-07T09:08:55.732Z,69.51
2022-09-07T09:12:02.117Z,69.43
2022-09-07T09:15:11.211Z,67.98
2022-09-07T09:18:19.443Z,68.91
2022-09-07T09:21:22.138Z,69.02
2022-09-07T09:24:24.672Z,68.68
2022-09-07T09:27:27.252Z,67.06
2022-09-07T09:30:31.500Z,66.13
2022-09-07T09:33:34.137Z,63.87
2022-09-07T09:36:37.570Z,64.41
2022-09-07T09:39:42.601Z,63.78
2022-09-07T09:42:45.263Z,65.01
2022-09-07T09:49:15.701Z,64.27
2022-09-07T09:52:42.952Z,63.25
2022-09-07T09:55:41.731Z,63.35
2022-09-07T10:05:49.532Z,60.72
2022-09-07T10:08:56.317Z,60.66
2022-09-07T10:12:07.741Z,59.90
2022-09-07T10:15:25.911Z,58.49
2022-09-07T10:18:33.435Z,58.42
2022-09-07T10:21:35.986Z,59.53
2022-09-07T10:24:39.814Z,58.80
2022-09-07T10:27:45.868Z,56.24
2022-09-07T10:30:56.549Z,56.50
2022-09-07T10:37:31.304Z,58.67
2022-09-07T10:40:35.184Z,57.62
2022-09-07T10:43:42.243Z,59.01
2022-09-07T10:47:02.693Z,58.01
2022-09-07T10:50:24.669Z,58.05
2022-09-07T10:53:41.193Z,57.79
2022-09-07T10:56:49.388Z,59.22
2022-09-07T11:00:10.543Z,58.36
2022-09-07T11:03:28.060Z,58.71
2022-09-07T11:06:33.603Z,56.67
2022-09-07T11:09:43.511Z,56.85
2022-09-07T11:12:46.069Z,54.90
2022-09-07T11:15:50.465Z,54.84
2022-09-07T11:19:35.030Z,53.33
2022-09-07T11:22:20.470Z,53.25
2022-09-07T11:25:32.620Z,54.91
2022-09-07T11:28:42.463Z,53.92
2022-09-07T11:31:47.444Z,53.42
2022-09-07T11:34:52.215Z,53.68
2022-09-07T11:37:59.465Z,53.64
2022-09-07T11:41:19.847Z,52.69
2022-09-07T11:44:24.709Z,52.29
2022-09-07T11:47:29.017Z,53.46
2022-09-07T11:50:33.254Z,53.35
2022-09-07T11:53:37.975Z,51.83
2022-09-07T11:56:45.740Z,51.52
2022-09-07T11:59:54.544Z,51.92
2022-09-07T12:03:13.000Z,51.80
2022-09-07T12:06:28.040Z,50.44
2022-09-07T12:09:39.782Z,48.68
2022-09-07T12:12:56.830Z,51.16
2022-09-07T12:16:01.211Z,49.92
2022-09-07T12:19:19.276Z,48.79
2022-09-07T12:22:22.216Z,50.19
2022-09-07T12:25:26.766Z,49.68
2022-09-07T12:29:06.469Z,48.38
2022-09-07T12:35:39.900Z,50.28
2022-09-07T12:39:07.241Z,51.06
2022-09-07T12:42:38.934Z,50.14
2022-09-07T12:45:49.883Z,49.85
2022-09-07T12:48:55.979Z,51.02
2022-09-07T12:52:04.938Z,52.31
2022-09-07T12:55:28.280Z,53.21
2022-09-07T12:58:39.373Z,53.31
2022-09-07T13:01:45.726Z,53.00
2022-09-07T13:04:54.144Z,52.42
2022-09-07T13:08:14.531Z,52.00
2022-09-07T13:11:18.414Z,53.18
2022-09-07T13:14:25.512Z,53.09
2022-09-07T13:17:42.591Z,52.78
2022-09-07T13:20:45.280Z,52.70
2022-09-07T13:24:46.327Z,53.61
2022-09-07T13:27:52.147Z,51.54
2022-09-07T13:31:03.373Z,52.63
2022-09-07T13:34:30.621Z,52.51
2022-09-07T13:37:45.567Z,52.59
2022-09-07T13:40:48.731Z,50.14
2022-09-07T13:43:51.851Z,51.82
2022-09-07T13:47:03.922Z,50.41
2022-09-07T13:50:15.699Z,50.93
2022-09-07T13:53:25.904Z,51.35
2022-09-07T13:56:34.429Z,51.74
2022-09-07T13:59:37.186Z,50.79
2022-09-07T14:02:41.701Z,50.76
2022-09-07T14:05:44.643Z,51.90
2022-09-07T14:08:50.820Z,51.74
2022-09-07T14:11:54.333Z,52.10
2022-09-07T14:15:09.616Z,51.37
2022-09-07T14:18:14.476Z,51.60
2022-09-07T14:21:19.073Z,51.72
2022-09-07T14:24:25.936Z,51.13
2022-09-07T14:27:32.996Z,50.50
2022-09-07T14:30:36.297Z,51.66
2022-09-07T14:33:44.864Z,51.03
2022-09-07T14:36:49.386Z,50.69
2022-09-07T14:39:52.802Z,50.55
2022-09-07T14:42:58.426Z,50.16
2022-09-07T14:46:12.981Z,50.09
2022-09-07T14:49:19.805Z,50.06
2022-09-07T14:52:23.154Z,51.12
2022-09-07T14:55:29.446Z,51.46
2022-09-07T14:58:32.491Z,51.71
2022-09-07T15:01:38.925Z,50.76
2022-09-07T15:04:43.233Z,51.97
2022-09-07T15:07:47.550Z,52.28
2022-09-07T15:14:21.231Z,52.71
2022-09-07T15:20:49.063Z,51.77
2022-09-07T15:23:52.426Z,51.84
2022-09-07T15:27:02.964Z,51.92
2022-09-07T15:30:07.033Z,52.06
2022-09-07T15:33:11.438Z,52.54
2022-09-07T15:36:16.295Z,52.95
2022-09-07T15:39:19.868Z,53.00
2022-09-07T15:45:45.407Z,53.05
2022-09-07T15:48:50.408Z,53.36
2022-09-07T15:52:11.216Z,52.81
2022-09-07T15:55:17.115Z,52.50
2022-09-07T15:58:20.436Z,52.21
2022-09-07T16:04:46.082Z,52.63
2022-09-07T16:11:18.339Z,51.97
2022-09-07T16:14:21.588Z,51.44
2022-09-07T16:17:34.291Z,52.15
2022-09-07T16:20:41.041Z,52.15
2022-09-07T16:23:47.226Z,52.61
2022-09-07T16:26:50.040Z,52.36
2022-09-07T16:29:52.801Z,52.85
2022-09-07T16:32:55.917Z,51.77
2022-09-07T16:35:59.728Z,52.68
2022-09-07T16:39:04.395Z,52.65
2022-09-07T16:42:07.988Z,53.02
2022-09-07T16:48:34.781Z,52.88
2022-09-07T16:51:37.608Z,53.04
2022-09-07T16:54:41.826Z,53.15
2022-09-07T17:01:07.842Z,53.71
2022-09-07T17:04:11.506Z,53.91
2022-09-07T17:07:14.462Z,53.70
2022-09-07T17:10:18.571Z,54.03
2022-09-07T17:13:21.313Z,54.34
2022-09-07T17:16:24.888Z,54.86
2022-09-07T17:19:29.202Z,54.28
2022-09-07T17:22:32.144Z,54.13
2022-09-07T17:25:37.695Z,53.87
2022-09-07T17:28:40.956Z,54.05
2022-09-07T17:35:06.993Z,54.54
2022-09-07T17:41:36.443Z,55.33
2022-09-07T17:44:39.051Z,55.54
2022-09-07T17:47:41.678Z,55.32
2022-09-07T17:50:44.493Z,55.97
2022-09-07T17:53:47.159Z,56.22
2022-09-07T17:56:51.257Z,56.26
2022-09-07T18:00:11.439Z,56.75
2022-09-07T18:03:14.351Z,56.53
2022-09-07T18:06:17.061Z,56.58
2022-09-07T18:09:20.308Z,57.15
2022-09-07T18:12:24.348Z,57.37
2022-09-07T18:15:27.068Z,57.73
2022-09-07T18:18:29.795Z,58.43
2022-09-07T18:21:33.792Z,59.03
2022-09-07T18:24:37.145Z,59.43
2022-09-07T18:27:41.416Z,59.22
2022-09-07T18:30:44.288Z,59.85
2022-09-07T18:33:47.689Z,60.23
2022-09-07T18:36:50.408Z,60.38
2022-09-07T18:39:54.362Z,61.02
2022-09-07T18:42:58.720Z,61.05
2022-09-07T18:46:02.995Z,61.38
2022-09-07T18:49:05.639Z,61.69
2022-09-07T18:55:32.254Z,61.77
2022-09-07T18:58:36.457Z,62.36
2022-09-07T19:01:39.513Z,62.57
2022-09-07T19:08:06.986Z,63.39
2022-09-07T19:11:10.744Z,63.75
2022-09-07T19:14:15.812Z,64.63
2022-09-07T19:17:18.475Z,64.97
2022-09-07T19:20:21.123Z,65.38
2022-09-07T19:23:23.817Z,65.20
2022-09-07T19:26:27.403Z,65.90
2022-09-07T19:29:31.628Z,66.10
2022-09-07T19:32:34.231Z,65.72
2022-09-07T19:35:37.122Z,65.82
2022-09-07T19:38:40.837Z,65.70
2022-09-07T19:41:45.084Z,65.87
2022-09-07T19:44:49.274Z,66.15
2022-09-07T19:47:51.895Z,66.58
2022-09-07T19:50:54.611Z,66.59
2022-09-07T19:53:57.270Z,66.51
2022-09-07T19:57:01.248Z,66.52
2022-09-07T20:00:06.652Z,66.45
2022-09-07T20:03:10.558Z,66.66
2022-09-07T20:06:14.555Z,67.21
2022-09-07T20:09:17.412Z,67.92
2022-09-07T20:12:20.142Z,68.37
2022-09-07T20:15:24.522Z,69.08
2022-09-07T20:18:27.617Z,69.56
2022-09-07T20:21:30.295Z,69.52
2022-09-07T20:24:34.188Z,69.53
2022-09-07T20:27:36.739Z,70.06
2022-09-07T20:30:44.703Z,70.27
2022-09-07T20:33:47.687Z,69.88
2022-09-07T20:36:50.404Z,69.97
2022-09-07T20:39:53.139Z,70.08
2022-09-07T20:42:55.868Z,70.43
2022-09-07T20:46:00.088Z,70.62
2022-09-07T20:49:03.681Z,71.52
2022-09-07T20:52:06.408Z,72.98
2022-09-07T20:55:09.991Z,72.57
2022-09-07T20:58:12.632Z,72.27
2022-09-07T21:01:17.832Z,72.54
2022-09-07T21:04:20.670Z,72.20
2022-09-07T21:07:23.499Z,72.19
2022-09-07T21:10:26.950Z,72.44
2022-09-07T21:13:29.712Z,72.55
2022-09-07T21:16:34.113Z,73.16
2022-09-07T21:19:37.318Z,73.41
2022-09-07T21:22:39.998Z,73.76
2022-09-07T21:25:45.857Z,74.48
2022-09-07T21:28:48.629Z,74.49
2022-09-07T21:31:53.437Z,74.37
2022-09-07T21:34:56.621Z,74.47
2022-09-07T21:37:59.316Z,75.45
2022-09-07T21:41:06.771Z,75.38
2022-09-07T21:44:11.219Z,74.98
2022-09-07T21:47:15.763Z,75.04
2022-09-07T21:50:18.644Z,74.48
2022-09-07T21:53:21.478Z,74.44
2022-09-07T21:56:24.324Z,73.89
2022-09-07T21:59:26.977Z,73.59
2022-09-07T22:02:30.928Z,73.42
2022-09-07T22:05:36.785Z,73.86
2022-09-07T22:08:40.562Z,73.47
2022-09-07T22:11:45.993Z,73.82
2022-09-07T22:14:49.129Z,73.94
2022-09-07T22:17:55.267Z,74.03
2022-09-07T22:21:05.442Z,73.77
2022-09-07T22:24:08.295Z,74.06
2022-09-07T22:27:11.128Z,73.47
2022-09-07T22:30:14.112Z,73.93
2022-09-07T22:33:18.117Z,73.78
2022-09-07T22:36:21.824Z,73.43
2022-09-07T22:39:24.508Z,73.44
2022-09-07T22:42:27.169Z,73.45
2022-09-07T22:45:29.851Z,74.04
2022-09-07T22:48:33.923Z,74.17
2022-09-07T22:51:36.610Z,73.61
2022-09-07T22:54:39.229Z,74.32
2022-09-07T22:57:41.816Z,74.66
2022-09-07T23:00:45.067Z,75.21
2022-09-07T23:03:49.300Z,74.68
2022-09-07T23:06:52.012Z,75.24
2022-09-07T23:09:54.718Z,75.52
2022-09-07T23:12:57.427Z,75.23
2022-09-07T23:16:04.066Z,75.94
2022-09-07T23:19:08.050Z,75.96
2022-09-07T23:22:10.667Z,75.83
2022-09-07T23:25:13.265Z,75.79
2022-09-07T23:28:15.809Z,75.72
2022-09-07T23:31:18.442Z,75.78
2022-09-07T23:34:22.550Z,76.48
2022-09-07T23:37:25.232Z,76.43
2022-09-07T23:40:30.184Z,77.33
2022-09-07T23:43:33.034Z,76.98
2022-09-07T23:46:35.871Z,76.37
2022-09-07T23:49:39.986Z,76.29
2022-09-07T23:52:42.572Z,76.82
2022-09-07T23:55:45.884Z,77.81
2022-09-07T23:58:48.701Z,77.82
